Time;durP1;ratioP1;P1;durP2;ratioP2;P2;SDS_P1;SDS_P2;PMS_P1;PMS_P2;Temp;Humidity;BMP_temperature;BMP_pressure;BME280_temperature;BME280_humidity;BME280_pressure;Samples;Min_cycle;Max_cycle;Signal;HPM_P1;HPM_P2
2021/04/28 00:02:22;;;;;;;3.53;3.22;;;12.20;99.90;;;;;;5033294;28;20081;-76
2021/04/28 00:04:48;;;;;;;5.70;3.22;;;12.20;99.90;;;;;;5045647;28;20110;-76
2021/04/28 00:07:14;;;;;;;5.70;3.00;;;12.20;99.90;;;;;;5052475;28;20033;-76
2021/04/28 00:09:40;;;;;;;3.00;2.75;;;12.20;99.90;;;;;;5032362;28;20128;-76
2021/04/28 00:12:07;;;;;;;2.65;2.42;;;12.20;99.90;;;;;;5052381;28;20092;-76
2021/04/28 00:14:34;;;;;;;2.92;2.72;;;12.10;99.90;;;;;;5052205;28;20107;-76
2021/04/28 00:16:59;;;;;;;3.40;2.60;;;12.10;99.90;;;;;;5051916;28;20028;-76
2021/04/28 00:19:27;;;;;;;3.25;2.33;;;12.10;99.90;;;;;;5048786;28;20471;-76
2021/04/28 00:21:53;;;;;;;5.47;3.08;;;11.90;99.90;;;;;;5046134;28;20020;-76
2021/04/28 00:24:19;;;;;;;3.50;2.80;;;11.80;99.90;;;;;;5032391;28;20117;-76
2021/04/28 00:26:45;;;;;;;3.42;3.13;;;11.70;99.90;;;;;;5032171;28;20032;-76
2021/04/28 00:29:11;;;;;;;3.55;2.75;;;11.70;99.90;;;;;;5030861;28;20025;-76
2021/04/28 00:31:37;;;;;;;2.97;2.35;;;11.60;99.90;;;;;;5036471;28;20511;-76
2021/04/28 00:34:02;;;;;;;5.53;3.17;;;11.60;99.90;;;;;;5036449;28;20040;-76
2021/04/28 00:36:28;;;;;;;3.20;2.45;;;11.60;99.90;;;;;;5041604;28;20028;-76
2021/04/28 00:38:54;;;;;;;2.78;2.30;;;11.50;99.90;;;;;;5036269;28;20506;-76
2021/04/28 00:41:20;;;;;;;12.98;3.10;;;11.50;99.90;;;;;;5036287;28;20025;-76
2021/04/28 00:43:46;;;;;;;2.60;2.40;;;11.50;99.90;;;;;;5035968;28;20033;-76
2021/04/28 00:46:12;;;;;;;6.22;1.63;;;11.50;99.90;;;;;;5035694;28;20033;-76
2021/04/28 00:48:39;;;;;;;1.98;1.52;;;11.50;99.90;;;;;;5035757;28;20046;-76
2021/04/28 00:51:05;;;;;;;1.35;1.25;;;11.50;99.90;;;;;;5035839;28;20023;-76
2021/04/28 00:53:31;;;;;;;1.50;1.40;;;11.40;99.90;;;;;;5026232;28;20502;-76
2021/04/28 00:55:58;;;;;;;1.42;1.33;;;11.40;99.90;;;;;;5034649;28;20064;-76
2021/04/28 00:58:25;;;;;;;1.13;1.02;;;11.40;99.90;;;;;;5034447;28;20116;-76
2021/04/28 01:00:52;;;;;;;1.80;1.15;;;11.30;99.90;;;;;;5034813;28;20048;-76
2021/04/28 01:03:28;;;;;;;1.98;1.70;;;11.10;99.90;;;;;;5035523;28;20399;-76
2021/04/28 01:05:59;;;;;;;2.03;1.60;;;11.10;99.90;;;;;;5035646;28;20025;-76
2021/04/28 01:08:25;;;;;;;3.58;1.95;;;11.10;99.90;;;;;;5034428;28;20064;-76
2021/04/28 01:10:52;;;;;;;2.90;1.83;;;11.10;99.90;;;;;;5035481;28;20517;-76
2021/04/28 01:13:19;;;;;;;1.70;1.60;;;11.10;99.90;;;;;;5035602;28;20092;-76
2021/04/28 01:15:46;;;;;;;1.70;1.60;;;11.00;99.90;;;;;;5034216;28;20044;-76
2021/04/28 01:18:12;;;;;;;1.65;1.52;;;11.10;99.90;;;;;;5035104;28;20032;-76
2021/04/28 01:20:39;;;;;;;2.05;1.65;;;11.00;99.90;;;;;;5035417;28;20092;-76
2021/04/28 01:23:07;;;;;;;1.55;1.45;;;11.00;99.90;;;;;;5035159;28;20398;-76
2021/04/28 01:25:34;;;;;;;1.67;1.55;;;11.00;99.90;;;;;;5035402;28;20018;-76
2021/04/28 01:28:02;;;;;;;2.50;1.40;;;10.90;99.90;;;;;;5034881;28;20030;-76
2021/04/28 01:30:33;;;;;;;1.58;1.48;;;11.00;99.90;;;;;;5034849;28;20097;-76
2021/04/28 01:32:59;;;;;;;1.75;1.65;;;10.90;99.90;;;;;;5050068;28;20029;-76
2021/04/28 01:35:26;;;;;;;3.65;1.55;;;11.00;99.90;;;;;;5035212;28;20507;-76
2021/04/28 01:37:54;;;;;;;1.20;1.15;;;11.00;99.90;;;;;;5034892;28;20033;-76
2021/04/28 01:40:21;;;;;;;1.52;1.42;;;11.00;99.90;;;;;;5035173;28;20021;-76
2021/04/28 01:42:49;;;;;;;3.25;1.70;;;11.00;99.90;;;;;;5034858;28;20039;-76
2021/04/28 01:45:18;;;;;;;2.10;1.98;;;11.00;99.90;;;;;;5034877;28;20390;-76
2021/04/28 01:47:44;;;;;;;1.80;1.50;;;11.00;99.90;;;;;;5034162;28;20139;-76
2021/04/28 01:50:12;;;;;;;2.05;1.60;;;10.80;99.90;;;;;;5035081;28;20041;-76
2021/04/28 01:52:38;;;;;;;2.35;1.38;;;10.80;99.90;;;;;;5034712;28;20021;-76
2021/04/28 01:55:05;;;;;;;1.35;1.25;;;10.80;99.90;;;;;;5034212;28;20016;-76
2021/04/28 01:57:32;;;;;;;1.67;1.58;;;10.80;99.90;;;;;;5034480;28;20108;-76
2021/04/28 01:59:58;;;;;;;2.28;2.15;;;10.80;99.90;;;;;;5049097;28;20013;-76
2021/04/28 02:02:24;;;;;;;2.95;2.47;;;10.80;99.90;;;;;;5040068;28;20049;-76
2021/04/28 02:04:50;;;;;;;1.90;1.80;;;10.70;99.90;;;;;;5034319;28;20377;-76
2021/04/28 02:07:18;;;;;;;2.70;2.47;;;10.80;99.90;;;;;;5037425;28;20055;-76
2021/04/28 02:09:44;;;;;;;2.25;2.13;;;10.80;99.90;;;;;;5054558;28;20064;-76
2021/04/28 02:12:13;;;;;;;3.50;2.38;;;10.90;99.90;;;;;;5053991;28;20486;-76
2021/04/28 02:14:40;;;;;;;2.45;2.25;;;10.90;99.90;;;;;;5054733;28;20029;-76
2021/04/28 02:17:08;;;;;;;2.58;2.38;;;10.80;99.90;;;;;;5054334;28;20025;-76
2021/04/28 02:19:38;;;;;;;2.20;2.10;;;10.90;99.90;;;;;;5054373;28;20029;-75
2021/04/28 02:22:04;;;;;;;2.50;2.30;;;11.00;99.90;;;;;;5034728;28;20021;-76
2021/04/28 02:24:30;;;;;;;3.92;2.47;;;11.00;99.90;;;;;;5034450;28;20049;-76
2021/04/28 02:26:57;;;;;;;3.78;2.85;;;10.90;99.90;;;;;;5033557;28;20495;-76
2021/04/28 02:29:24;;;;;;;3.30;3.00;;;11.00;99.90;;;;;;5037149;28;20025;-76
2021/04/28 02:31:50;;;;;;;2.92;2.63;;;11.00;99.90;;;;;;5050181;28;20033;-76
2021/04/28 02:34:16;;;;;;;2.80;2.60;;;10.90;99.90;;;;;;5029219;28;20490;-76
2021/04/28 02:36:45;;;;;;;3.88;2.85;;;10.90;99.90;;;;;;5034118;28;20033;-76
2021/04/28 02:39:21;;;;;;;2.92;2.72;;;10.90;99.90;;;;;;5033946;28;20097;-76
2021/04/28 02:41:48;;;;;;;2.70;2.50;;;10.80;99.90;;;;;;5033664;28;20040;-76
2021/04/28 02:44:18;;;;;;;3.58;3.35;;;10.80;99.90;;;;;;5033824;28;20026;-76
2021/04/28 02:46:45;;;;;;;3.28;3.03;;;10.80;99.90;;;;;;5038580;28;20116;-76
2021/04/28 02:49:13;;;;;;;3.13;2.92;;;10.70;99.90;;;;;;5053654;28;20100;-76
2021/04/28 02:51:40;;;;;;;3.58;3.20;;;10.60;99.90;;;;;;5040928;28;20203;-76
2021/04/28 02:54:07;;;;;;;3.95;3.58;;;10.60;99.90;;;;;;5029193;28;20021;-76
2021/04/28 02:56:34;;;;;;;4.00;3.70;;;10.50;99.90;;;;;;5031614;28;20034;-76
2021/04/28 02:59:01;;;;;;;4.40;4.00;;;10.60;99.90;;;;;;5033950;28;20108;-76
2021/04/28 03:01:28;;;;;;;3.35;3.05;;;10.60;99.90;;;;;;5031975;28;20045;-76
2021/04/28 03:03:55;;;;;;;3.35;3.03;;;10.50;99.90;;;;;;5035377;28;20180;-76
2021/04/28 03:06:21;;;;;;;3.88;3.22;;;10.50;99.90;;;;;;5031234;28;20034;-76
2021/04/28 03:08:47;;;;;;;2.88;2.67;;;10.50;99.90;;;;;;5032057;28;20051;-76
2021/04/28 03:11:14;;;;;;;3.40;3.10;;;10.50;99.90;;;;;;5030637;28;20037;-76
2021/04/28 03:13:41;;;;;;;2.97;2.78;;;10.50;99.90;;;;;;5032348;28;20171;-76
2021/04/28 03:16:09;;;;;;;3.28;2.97;;;10.40;99.90;;;;;;5040677;28;20036;-76
2021/04/28 03:18:37;;;;;;;4.05;3.75;;;10.40;99.90;;;;;;5020370;28;20013;-76
2021/04/28 03:21:03;;;;;;;3.85;3.55;;;10.40;99.90;;;;;;5045036;28;20019;-76
2021/04/28 03:23:30;;;;;;;4.80;4.40;;;10.40;99.90;;;;;;5033816;28;20033;-75
2021/04/28 03:25:56;;;;;;;4.50;3.90;;;10.40;99.90;;;;;;5040963;28;20092;-75
2021/04/28 03:28:22;;;;;;;4.85;4.40;;;10.40;99.90;;;;;;5032619;28;20021;-75
2021/04/28 03:30:47;;;;;;;5.63;4.93;;;10.40;99.90;;;;;;5044054;28;20064;-75
2021/04/28 03:33:13;;;;;;;4.95;4.50;;;10.30;99.90;;;;;;5033476;28;20063;-75
2021/04/28 03:35:39;;;;;;;7.13;4.53;;;10.30;99.90;;;;;;5034506;28;20097;-75
2021/04/28 03:38:05;;;;;;;5.55;5.05;;;10.40;99.90;;;;;;5030962;28;20063;-75
2021/04/28 03:40:31;;;;;;;5.72;5.18;;;10.30;99.90;;;;;;5030687;28;20034;-75
2021/04/28 03:42:57;;;;;;;5.35;4.95;;;10.20;99.90;;;;;;5046420;28;20104;-75
2021/04/28 03:45:23;;;;;;;5.68;5.15;;;10.10;99.90;;;;;;5033501;28;20462;-75
2021/04/28 03:47:49;;;;;;;7.03;5.82;;;10.00;99.90;;;;;;5032185;28;20052;-75
2021/04/28 03:50:15;;;;;;;6.50;5.90;;;10.10;99.90;;;;;;5022534;28;20495;-74
2021/04/28 03:52:41;;;;;;;6.85;5.97;;;10.10;99.90;;;;;;5031514;28;20044;-75
2021/04/28 03:55:08;;;;;;;6.72;6.10;;;10.00;99.90;;;;;;5039653;28;20107;-75
2021/04/28 03:57:33;;;;;;;6.38;5.78;;;10.10;99.90;;;;;;5032544;28;20040;-75
2021/04/28 03:59:59;;;;;;;7.93;6.45;;;10.20;99.90;;;;;;5032673;28;20030;-75
2021/04/28 04:02:25;;;;;;;7.00;6.38;;;10.20;99.90;;;;;;5032366;28;20156;-75
2021/04/28 04:04:51;;;;;;;6.88;5.85;;;10.10;99.90;;;;;;5031773;28;20121;-75
2021/04/28 04:07:17;;;;;;;6.60;5.60;;;10.00;99.90;;;;;;5039456;28;20020;-75
2021/04/28 04:09:43;;;;;;;5.78;5.10;;;10.00;99.90;;;;;;5040031;28;20040;-75
2021/04/28 04:12:09;;;;;;;10.98;7.10;;;10.00;99.90;;;;;;5032008;28;20491;-75
2021/04/28 04:14:35;;;;;;;7.45;6.75;;;10.00;99.90;;;;;;5031464;28;20502;-76
2021/04/28 04:17:00;;;;;;;9.30;6.22;;;10.00;99.90;;;;;;5032326;28;20017;-75
2021/04/28 04:19:26;;;;;;;6.07;5.57;;;10.00;99.90;;;;;;5030949;28;20030;-75
2021/04/28 04:21:52;;;;;;;6.95;6.00;;;10.10;99.90;;;;;;5032224;28;20060;-75
2021/04/28 04:24:17;;;;;;;10.02;6.75;;;10.10;99.90;;;;;;5031965;28;20109;-75
2021/04/28 04:26:43;;;;;;;12.70;6.80;;;10.20;99.90;;;;;;5030996;28;20113;-75
2021/04/28 04:29:09;;;;;;;7.57;6.10;;;10.20;99.90;;;;;;5032140;28;20072;-75
2021/04/28 04:31:35;;;;;;;6.95;6.07;;;10.10;99.90;;;;;;5032178;28;20021;-75
2021/04/28 04:34:01;;;;;;;7.38;6.68;;;10.10;99.90;;;;;;5031907;28;20113;-75
2021/04/28 04:36:27;;;;;;;8.30;6.45;;;10.10;99.90;;;;;;5032056;28;20025;-75
2021/04/28 04:38:52;;;;;;;6.07;5.57;;;10.10;99.90;;;;;;5031827;28;20553;-75
2021/04/28 04:41:18;;;;;;;6.18;5.65;;;10.10;99.90;;;;;;5032299;28;20434;-75
2021/04/28 04:43:44;;;;;;;6.40;5.40;;;10.10;99.90;;;;;;5030662;28;20021;-75
2021/04/28 04:46:10;;;;;;;4.95;4.55;;;10.10;99.90;;;;;;5032148;28;20025;-75
2021/04/28 04:48:36;;;;;;;6.70;5.75;;;10.10;99.90;;;;;;5031918;28;20025;-75
2021/04/28 04:51:02;;;;;;;9.15;6.25;;;10.10;99.90;;;;;;5030718;28;20133;-75
2021/04/28 04:53:28;;;;;;;7.72;6.05;;;10.10;99.90;;;;;;5031839;28;20036;-75
2021/04/28 04:55:53;;;;;;;11.63;6.20;;;10.10;99.90;;;;;;5031764;28;20052;-75
2021/04/28 04:58:19;;;;;;;6.80;6.13;;;9.90;99.90;;;;;;5031985;28;20084;-75
2021/04/28 05:00:46;;;;;;;8.82;7.07;;;10.00;99.90;;;;;;5031594;28;20038;-75
2021/04/28 05:03:12;;;;;;;7.53;6.60;;;10.00;99.90;;;;;;5032012;28;20025;-75
2021/04/28 05:05:38;;;;;;;7.60;6.53;;;10.10;99.90;;;;;;5031399;28;20036;-75
2021/04/28 05:08:04;;;;;;;9.77;8.68;;;10.00;99.90;;;;;;5031934;28;20033;-75
2021/04/28 05:10:29;;;;;;;8.70;7.80;;;10.10;99.90;;;;;;5031920;28;20092;-75
2021/04/28 05:12:55;;;;;;;10.70;8.85;;;10.10;99.90;;;;;;5031677;28;20033;-75
2021/04/28 05:15:21;;;;;;;12.23;8.57;;;10.10;99.90;;;;;;5031971;28;20375;-75
2021/04/28 05:17:47;;;;;;;10.32;8.13;;;10.10;99.90;;;;;;5031624;28;20029;-75
2021/04/28 05:20:14;;;;;;;10.25;8.35;;;10.10;99.90;;;;;;5031721;28;20024;-75
2021/04/28 05:22:40;;;;;;;12.75;7.53;;;10.20;99.90;;;;;;5034292;28;20116;-75
2021/04/28 05:25:07;;;;;;;11.05;8.25;;;10.20;99.90;;;;;;5035350;28;20026;-75
2021/04/28 05:27:33;;;;;;;8.57;7.78;;;10.20;99.90;;;;;;5035541;28;20087;-75
2021/04/28 05:29:59;;;;;;;8.82;7.93;;;10.20;99.90;;;;;;5035242;28;20071;-75
2021/04/28 05:32:25;;;;;;;9.43;8.52;;;10.10;99.90;;;;;;5035216;28;20033;-75
2021/04/28 05:34:53;;;;;;;7.75;6.65;;;10.10;99.90;;;;;;5034920;28;20049;-75
2021/04/28 05:37:19;;;;;;;8.60;7.70;;;10.10;99.90;;;;;;5035209;28;20036;-75
2021/04/28 05:39:49;;;;;;;11.82;8.60;;;10.20;99.90;;;;;;5035048;28;20098;-75
2021/04/28 05:42:17;;;;;;;10.02;8.63;;;10.30;99.90;;;;;;5035451;28;20033;-76
2021/04/28 05:44:44;;;;;;;11.00;8.73;;;10.40;99.90;;;;;;5035091;28;20025;-76
2021/04/28 05:47:10;;;;;;;11.93;7.40;;;10.40;99.90;;;;;;5034848;28;20026;-75
2021/04/28 05:49:36;;;;;;;12.20;9.07;;;10.50;99.90;;;;;;5034688;28;20022;-75
2021/04/28 05:52:02;;;;;;;12.10;10.13;;;10.50;99.90;;;;;;5034883;28;20448;-75
2021/04/28 05:54:28;;;;;;;13.18;8.95;;;10.40;99.90;;;;;;5034647;28;20032;-75
2021/04/28 05:56:56;;;;;;;10.65;7.63;;;10.50;99.90;;;;;;5034521;28;20068;-75
2021/04/28 05:59:22;;;;;;;10.48;8.20;;;10.50;99.90;;;;;;5034893;28;20438;-75
2021/04/28 06:01:48;;;;;;;9.93;7.53;;;10.50;99.90;;;;;;5034241;28;20053;-75
2021/04/28 06:04:13;;;;;;;9.48;7.80;;;10.50;99.90;;;;;;5034326;28;20066;-75
2021/04/28 06:06:39;;;;;;;10.88;8.52;;;10.60;99.90;;;;;;5034716;28;20033;-75
2021/04/28 06:09:05;;;;;;;11.95;8.80;;;10.60;99.90;;;;;;5034400;28;20092;-75
2021/04/28 06:11:31;;;;;;;9.15;8.20;;;10.60;99.90;;;;;;5038265;28;20041;-77
2021/04/28 06:13:57;;;;;;;11.05;8.80;;;10.80;99.90;;;;;;5042737;28;20071;-76
2021/04/28 06:16:24;;;;;;;12.25;9.00;;;10.70;99.90;;;;;;5035356;28;20022;-76
2021/04/28 06:18:50;;;;;;;10.00;8.93;;;10.70;99.90;;;;;;5048129;28;20017;-75
2021/04/28 06:21:16;;;;;;;10.80;9.00;;;10.70;99.90;;;;;;5039830;28;20032;-76
2021/04/28 06:23:42;;;;;;;9.15;8.25;;;10.70;99.90;;;;;;5047425;28;20025;-76
2021/04/28 06:26:07;;;;;;;9.18;8.07;;;10.90;99.90;;;;;;5042776;28;20033;-76
2021/04/28 06:28:33;;;;;;;8.77;7.22;;;10.90;99.90;;;;;;5043242;28;20415;-77
2021/04/28 06:30:59;;;;;;;12.02;7.50;;;11.00;99.90;;;;;;5044013;28;20108;-75
2021/04/28 06:33:25;;;;;;;12.30;8.10;;;11.00;99.90;;;;;;5050964;28;20594;-75
2021/04/28 06:35:51;;;;;;;12.98;8.25;;;11.00;99.90;;;;;;5050674;28;20029;-74
2021/04/28 06:38:17;;;;;;;12.93;8.27;;;10.90;99.90;;;;;;5043973;28;20056;-75
2021/04/28 06:40:42;;;;;;;12.13;8.68;;;11.00;99.90;;;;;;5032389;28;20032;-74
2021/04/28 06:43:08;;;;;;;10.63;8.35;;;10.90;99.90;;;;;;5030843;28;20487;-74
2021/04/28 06:45:35;;;;;;;10.35;8.07;;;10.90;99.90;;;;;;5032368;28;20029;-74
2021/04/28 06:48:02;;;;;;;15.38;8.77;;;11.00;99.90;;;;;;5033022;28;20083;-74
2021/04/28 06:50:27;;;;;;;8.57;7.30;;;11.00;99.90;;;;;;5033850;28;20033;-74
2021/04/28 06:52:53;;;;;;;9.57;7.40;;;11.20;99.90;;;;;;5033091;28;21091;-75
2021/04/28 06:55:20;;;;;;;10.57;7.93;;;11.20;99.90;;;;;;5027859;28;20117;-76
2021/04/28 06:57:52;;;;;;;12.60;9.15;;;11.30;99.90;;;;;;5034377;28;20022;-75
2021/04/28 07:00:19;;;;;;;9.98;8.45;;;11.30;99.90;;;;;;5030927;28;20017;-76
2021/04/28 07:02:45;;;;;;;10.18;7.93;;;11.30;99.90;;;;;;5035228;28;20022;-74
2021/04/28 07:05:11;;;;;;;12.85;7.85;;;11.30;99.90;;;;;;5033093;28;20040;-74
2021/04/28 07:07:37;;;;;;;8.90;8.00;;;11.20;99.90;;;;;;5033540;28;20502;-74
2021/04/28 07:10:04;;;;;;;13.95;7.90;;;11.30;99.90;;;;;;5033614;28;20025;-74
2021/04/28 07:12:30;;;;;;;14.18;8.45;;;11.20;99.90;;;;;;5033323;28;20113;-74
2021/04/28 07:14:55;;;;;;;13.02;7.65;;;11.30;99.90;;;;;;5033334;28;20462;-74
2021/04/28 07:17:21;;;;;;;9.32;7.72;;;11.40;99.90;;;;;;5031659;28;20018;-74
2021/04/28 07:19:47;;;;;;;9.93;8.43;;;11.30;99.90;;;;;;5032075;28;20108;-74
2021/04/28 07:22:13;;;;;;;13.85;7.88;;;11.40;99.90;;;;;;5033276;28;20018;-74
2021/04/28 07:24:38;;;;;;;12.77;8.90;;;11.40;99.90;;;;;;5033000;28;20022;-74
2021/04/28 07:27:04;;;;;;;8.60;7.80;;;11.50;99.90;;;;;;5033310;28;20029;-74
2021/04/28 07:29:30;;;;;;;10.55;8.18;;;11.50;99.90;;;;;;5033214;28;20029;-74
2021/04/28 07:31:57;;;;;;;12.88;9.30;;;11.60;99.90;;;;;;5032671;28;20053;-74
2021/04/28 07:34:23;;;;;;;10.45;7.60;;;11.70;99.90;;;;;;5032780;28;20057;-74
2021/04/28 07:36:48;;;;;;;10.60;8.35;;;11.80;99.90;;;;;;5033119;28;20057;-74
2021/04/28 07:39:14;;;;;;;14.52;8.68;;;11.70;99.90;;;;;;5032777;28;20034;-74
2021/04/28 07:41:40;;;;;;;13.13;8.55;;;11.90;99.90;;;;;;5032825;28;20029;-74
2021/04/28 07:44:06;;;;;;;13.90;8.32;;;12.00;99.90;;;;;;5031352;28;20029;-74
2021/04/28 07:46:33;;;;;;;12.65;7.70;;;12.10;99.90;;;;;;5032374;28;20506;-74
2021/04/28 07:49:04;;;;;;;14.63;8.85;;;12.10;99.90;;;;;;5032776;28;20025;-74
2021/04/28 07:51:34;;;;;;;12.18;8.20;;;12.40;99.90;;;;;;5032599;28;20040;-74
2021/04/28 07:54:00;;;;;;;10.43;7.63;;;12.80;99.90;;;;;;5032457;28;20091;-74
2021/04/28 07:56:26;;;;;;;13.18;8.07;;;13.00;99.90;;;;;;5032420;28;20029;-74
2021/04/28 07:58:52;;;;;;;12.05;7.50;;;13.00;99.90;;;;;;5032777;28;20022;-74
2021/04/28 08:01:19;;;;;;;9.73;7.07;;;12.90;99.90;;;;;;5031974;28;20116;-74
2021/04/28 08:03:45;;;;;;;8.38;7.45;;;13.00;99.90;;;;;;5032365;28;20040;-74
2021/04/28 08:06:11;;;;;;;10.60;8.45;;;13.10;99.90;;;;;;5032615;28;20029;-74
2021/04/28 08:08:37;;;;;;;10.32;7.47;;;13.30;99.90;;;;;;5032500;28;20395;-74
2021/04/28 08:11:03;;;;;;;10.77;7.53;;;13.50;99.90;;;;;;5032493;28;20056;-74
2021/04/28 08:13:30;;;;;;;7.00;6.25;;;13.60;99.90;;;;;;5032195;28;20068;-74
2021/04/28 08:15:56;;;;;;;11.40;7.97;;;13.70;99.90;;;;;;5030914;28;20388;-74
2021/04/28 08:18:23;;;;;;;11.15;7.07;;;13.70;99.90;;;;;;5032155;28;20025;-74
2021/04/28 08:20:49;;;;;;;9.38;7.45;;;13.50;99.90;;;;;;5032492;28;20017;-74
2021/04/28 08:23:15;;;;;;;8.10;7.22;;;13.30;99.90;;;;;;5032213;28;20399;-74
2021/04/28 08:25:42;;;;;;;8.45;7.63;;;13.10;99.90;;;;;;5032286;28;20029;-74
2021/04/28 08:28:09;;;;;;;11.27;8.38;;;13.10;99.90;;;;;;5032385;28;20026;-74
2021/04/28 08:30:35;;;;;;;8.93;7.93;;;13.10;99.90;;;;;;5031710;28;20083;-74
2021/04/28 08:33:00;;;;;;;10.98;7.13;;;13.20;99.90;;;;;;5032116;28;20553;-74
2021/04/28 08:35:27;;;;;;;8.35;7.57;;;13.30;99.90;;;;;;5032190;28;20022;-74
2021/04/28 08:37:53;;;;;;;10.48;7.93;;;13.30;99.90;;;;;;5032298;28;20025;-74
2021/04/28 08:40:19;;;;;;;14.32;8.38;;;13.10;99.90;;;;;;5032017;28;20021;-74
2021/04/28 08:42:46;;;;;;;8.20;7.50;;;13.10;99.90;;;;;;5031990;28;20033;-74
2021/04/28 08:45:13;;;;;;;11.07;8.35;;;13.00;99.90;;;;;;5031650;28;20457;-74
2021/04/28 08:47:40;;;;;;;11.13;8.02;;;12.90;99.90;;;;;;5031972;28;20029;-74
2021/04/28 08:50:07;;;;;;;10.65;8.70;;;12.70;99.90;;;;;;5032280;28;20483;-74
2021/04/28 08:52:35;;;;;;;8.85;7.95;;;12.70;99.90;;;;;;5031627;28;20038;-74
2021/04/28 08:55:02;;;;;;;8.93;8.10;;;12.70;99.90;;;;;;5032018;28;20049;-74
2021/04/28 08:57:28;;;;;;;10.68;8.90;;;12.80;99.90;;;;;;5034487;28;20495;-74
2021/04/28 08:59:54;;;;;;;12.43;7.70;;;12.80;99.90;;;;;;5035580;28;20104;-74
2021/04/28 09:02:23;;;;;;;11.18;8.82;;;12.70;99.90;;;;;;5035838;28;20419;-74
2021/04/28 09:05:12;;;;;;;10.00;7.65;;;12.70;99.90;;;;;;5035762;28;20070;-74
2021/04/28 09:07:43;;;;;;;9.43;8.43;;;12.50;99.90;;;;;;5035608;28;20060;-74
2021/04/28 09:10:13;;;;;;;14.75;9.32;;;12.30;99.90;;;;;;5035856;28;20013;-74
2021/04/28 09:12:40;;;;;;;10.93;8.77;;;12.20;99.90;;;;;;5035200;28;20072;-74
2021/04/28 09:15:10;;;;;;;11.32;9.50;;;12.10;99.90;;;;;;5035566;28;20018;-74
2021/04/28 09:17:54;;;;;;;9.05;8.13;;;12.00;99.90;;;;;;5035470;28;20029;-74
2021/04/28 09:20:27;;;;;;;9.27;8.38;;;11.90;99.90;;;;;;5035569;28;20029;-74
2021/04/28 09:23:14;;;;;;;13.60;8.68;;;11.90;99.90;;;;;;5035406;28;20104;-74
2021/04/28 09:25:45;;;;;;;15.50;8.77;;;11.90;99.90;;;;;;5035455;28;20056;-74
2021/04/28 09:28:34;;;;;;;8.82;7.90;;;11.90;99.90;;;;;;5035395;28;20033;-74
2021/04/28 09:31:06;;;;;;;10.18;7.80;;;11.90;99.90;;;;;;5035227;28;20025;-74
2021/04/28 09:33:41;;;;;;;10.35;8.02;;;12.10;99.90;;;;;;5033817;28;20037;-74
2021/04/28 09:36:08;;;;;;;10.10;7.88;;;12.00;99.90;;;;;;5035491;28;20156;-74
2021/04/28 09:38:48;;;;;;;15.57;8.30;;;11.90;99.90;;;;;;5035177;28;20386;-74
2021/04/28 09:41:34;;;;;;;;;;;11.80;99.90;;;;;;5035278;28;20030;-74
2021/04/28 09:44:01;;;;;;;12.82;8.05;;;11.80;99.90;;;;;;5034753;28;19911;-74
2021/04/28 09:46:26;;;;;;;10.40;8.07;;;11.70;99.90;;;;;;5033901;28;20402;-74
2021/04/28 09:49:08;;;;;;;9.30;8.40;;;11.50;99.90;;;;;;5034974;28;20109;-74
2021/04/28 09:51:36;;;;;;;11.23;9.20;;;11.60;99.90;;;;;;5034870;28;20112;-74
2021/04/28 09:54:15;;;;;;;11.00;7.82;;;11.70;99.90;;;;;;5034943;28;20026;-74
2021/04/28 09:56:42;;;;;;;12.30;9.07;;;11.80;99.90;;;;;;5034394;28;20448;-74
2021/04/28 09:59:09;;;;;;;11.15;8.98;;;11.90;99.90;;;;;;5033468;28;20403;-74
2021/04/28 10:01:37;;;;;;;9.82;7.90;;;11.90;99.90;;;;;;5034356;28;20081;-74
2021/04/28 10:04:05;;;;;;;10.10;7.25;;;12.00;99.90;;;;;;5034801;28;20096;-74
2021/04/28 10:06:45;;;;;;;14.45;8.45;;;11.90;99.90;;;;;;5034234;28;20498;-74
2021/04/28 10:09:31;;;;;;;11.32;8.30;;;12.00;99.90;;;;;;5034343;28;20084;-74
2021/04/28 10:11:58;;;;;;;9.10;8.18;;;12.20;99.90;;;;;;5032968;28;20183;-74
2021/04/28 10:14:29;;;;;;;11.68;9.00;;;12.40;99.90;;;;;;5034585;28;20070;-74
2021/04/28 10:16:56;;;;;;;9.73;8.00;;;12.50;99.90;;;;;;5034458;28;20018;-74
2021/04/28 10:19:23;;;;;;;9.52;8.23;;;12.70;99.90;;;;;;5034597;28;20114;-74
2021/04/28 10:21:50;;;;;;;9.23;8.25;;;12.70;99.90;;;;;;5034222;28;20387;-74
2021/04/28 10:24:19;;;;;;;8.75;7.85;;;12.70;99.90;;;;;;5033246;28;20022;-74
2021/04/28 10:26:47;;;;;;;9.05;7.32;;;12.90;99.90;;;;;;5034080;28;20034;-74
2021/04/28 10:29:18;;;;;;;10.68;7.50;;;13.20;99.90;;;;;;5034423;28;20104;-74
2021/04/28 10:31:45;;;;;;;10.48;6.97;;;13.20;99.90;;;;;;5033066;28;20030;-74
2021/04/28 10:34:15;;;;;;;9.70;7.53;;;13.10;99.90;;;;;;5034017;28;20451;-74
2021/04/28 10:36:43;;;;;;;9.43;7.45;;;13.10;99.90;;;;;;5032996;28;20059;-74
2021/04/28 10:39:09;;;;;;;8.82;7.63;;;13.10;99.90;;;;;;5032405;28;20025;-74
2021/04/28 10:41:44;;;;;;;8.65;7.75;;;12.90;99.90;;;;;;5032793;28;20036;-74
2021/04/28 10:44:31;;;;;;;10.77;8.18;;;13.00;99.90;;;;;;5034066;28;20104;-74
2021/04/28 10:47:23;;;;;;;13.05;8.43;;;12.80;99.90;;;;;;5033861;28;20029;-74
2021/04/28 10:50:22;;;;;;;9.40;7.22;;;12.70;99.90;;;;;;5033920;28;20395;-74
2021/04/28 10:53:20;;;;;;;11.20;8.02;;;12.60;99.90;;;;;;5033664;28;20098;-74
2021/04/28 10:55:56;;;;;;;8.63;7.38;;;12.70;99.90;;;;;;5033036;28;20091;-74
2021/04/28 10:58:35;;;;;;;12.98;7.85;;;13.00;99.90;;;;;;5033811;28;20105;-74
2021/04/28 11:01:06;;;;;;;10.40;7.95;;;12.90;99.90;;;;;;5033458;28;20442;-74
2021/04/28 11:03:39;;;;;;;8.45;7.00;;;12.70;99.90;;;;;;5033832;28;20033;-74
2021/04/28 11:06:23;;;;;;;8.52;7.45;;;12.70;99.90;;;;;;5033556;28;20036;-74
2021/04/28 11:09:02;;;;;;;11.15;7.07;;;12.50;99.90;;;;;;5033254;28;20022;-74
2021/04/28 11:14:11;;;;;;;8.43;7.18;;;12.30;99.90;;;;;;5033506;28;20311;-74
2021/04/28 11:16:41;;;;;;;;;;;12.40;99.90;;;;;;5033837;28;20053;-74
2021/04/28 11:19:34;;;;;;;9.52;7.38;;;12.40;99.90;;;;;;5032808;28;19955;-74
2021/04/28 11:22:21;;;;;;;8.75;7.50;;;12.30;99.90;;;;;;5033272;28;20101;-74
2021/04/28 11:25:02;;;;;;;13.23;7.55;;;12.50;99.90;;;;;;5033076;28;20029;-74
2021/04/28 11:27:53;;;;;;;11.38;8.00;;;12.40;99.90;;;;;;5033354;28;20026;-74
2021/04/28 11:30:24;;;;;;;8.13;7.32;;;12.30;99.90;;;;;;5033149;28;20033;-75
2021/04/28 11:33:25;;;;;;;7.88;7.07;;;12.40;99.90;;;;;;5033024;28;20036;-74
2021/04/28 11:35:53;;;;;;;10.30;7.85;;;12.70;99.90;;;;;;5030533;28;20037;-74
2021/04/28 11:38:24;;;;;;;8.93;7.38;;;12.80;99.90;;;;;;5030361;28;20030;-74
2021/04/28 11:41:06;;;;;;;8.50;7.47;;;12.90;99.90;;;;;;5030876;28;20057;-74
2021/04/28 11:43:41;;;;;;;7.55;6.70;;;12.90;99.90;;;;;;5030638;28;20076;-74
2021/04/28 11:46:12;;;;;;;8.25;7.28;;;13.00;99.90;;;;;;5013955;28;20034;-74
2021/04/28 11:48:42;;;;;;;8.02;7.22;;;12.90;99.90;;;;;;5030836;28;20541;-74
2021/04/28 11:51:14;;;;;;;8.68;6.90;;;12.90;99.90;;;;;;5030416;28;20045;-74
2021/04/28 11:53:49;;;;;;;8.27;6.82;;;12.90;99.90;;;;;;5030158;28;20022;-74
2021/04/28 11:56:32;;;;;;;9.50;7.47;;;12.90;99.90;;;;;;5030413;28;20026;-74
2021/04/28 11:59:00;;;;;;;9.82;7.38;;;13.00;99.90;;;;;;5013996;28;20531;-75
2021/04/28 12:01:27;;;;;;;7.55;6.85;;;13.20;99.90;;;;;;5030507;28;20075;-74
2021/04/28 12:04:06;;;;;;;9.57;7.55;;;13.10;99.90;;;;;;5030292;28;20091;-74
2021/04/28 12:06:42;;;;;;;8.82;6.75;;;13.30;99.90;;;;;;5030279;28;20037;-74
2021/04/28 12:09:33;;;;;;;9.70;7.10;;;13.20;99.90;;;;;;5030105;28;20554;-74
2021/04/28 12:12:14;;;;;;;10.63;7.30;;;13.40;99.90;;;;;;5025984;28;20513;-74
2021/04/28 12:14:42;;;;;;;7.60;6.90;;;13.40;99.90;;;;;;5032604;28;20030;-74
2021/04/28 12:17:08;;;;;;;9.23;6.20;;;13.40;99.90;;;;;;5032195;28;20467;-74
2021/04/28 12:19:34;;;;;;;7.45;6.38;;;13.20;99.90;;;;;;5032305;28;20059;-74
2021/04/28 12:22:07;;;;;;;6.25;5.40;;;13.40;99.90;;;;;;5030882;28;20053;-74
2021/04/28 12:24:40;;;;;;;5.85;5.30;;;13.20;99.90;;;;;;5032284;28;20299;-74
2021/04/28 12:27:27;;;;;;;7.85;5.63;;;13.60;99.90;;;;;;5032265;28;20084;-74
2021/04/28 12:30:07;;;;;;;6.78;6.05;;;14.00;99.90;;;;;;5030409;28;20037;-74
2021/04/28 12:32:43;;;;;;;6.40;5.72;;;14.30;99.90;;;;;;5032234;28;20033;-75
2021/04/28 12:35:09;;;;;;;6.93;5.32;;;14.40;99.90;;;;;;5030480;28;20525;-74
2021/04/28 12:37:36;;;;;;;6.88;5.95;;;14.50;99.90;;;;;;5032287;28;20053;-74
2021/04/28 12:40:04;;;;;;;11.05;6.13;;;14.30;99.90;;;;;;5031814;28;20399;-74
2021/04/28 12:42:32;;;;;;;7.43;5.10;;;14.20;99.90;;;;;;5031861;28;20055;-74
2021/04/28 12:45:00;;;;;;;7.50;5.53;;;14.10;99.90;;;;;;5032090;28;20044;-74
2021/04/28 12:47:33;;;;;;;7.47;5.45;;;14.10;99.90;;;;;;5031993;28;20083;-74
2021/04/28 12:50:05;;;;;;;6.80;5.70;;;14.20;99.90;;;;;;5031829;28;20018;-74
2021/04/28 12:52:33;;;;;;;8.63;5.28;;;14.10;99.90;;;;;;5031929;28;20060;-74
2021/04/28 12:55:30;;;;;;;5.95;5.35;;;14.10;99.90;;;;;;5031832;28;20021;-74